createdAt,value
2023-04-27T00:00:13.769Z,99.90
2023-04-27T00:04:18.236Z,99.90
2023-04-27T00:08:18.630Z,99.90
2023-04-27T00:12:19.110Z,99.90
2023-04-27T00:16:19.310Z,99.90
2023-04-27T00:20:22.445Z,99.90
2023-04-27T00:24:22.723Z,99.90
2023-04-27T00:28:24.510Z,99.90
2023-04-27T00:32:24.756Z,99.90
2023-04-27T00:36:27.649Z,99.90
2023-04-27T00:40:27.780Z,99.90
2023-04-27T00:44:28.353Z,99.90
2023-04-27T00:48:29.958Z,99.90
2023-04-27T00:52:33.409Z,99.90
2023-04-27T00:56:35.324Z,99.90
2023-04-27T01:00:35.938Z,99.90
2023-04-27T01:04:37.243Z,99.90
2023-04-27T01:08:40.181Z,99.90
2023-04-27T01:12:41.300Z,99.90
2023-04-27T01:16:41.486Z,99.90
2023-04-27T01:20:43.643Z,99.90
2023-04-27T01:24:47.208Z,99.90
2023-04-27T01:28:47.672Z,99.90
2023-04-27T01:32:47.930Z,99.90
2023-04-27T01:36:48.670Z,99.90
2023-04-27T01:40:51.652Z,99.90
2023-04-27T01:44:54.700Z,99.90
2023-04-27T01:48:54.850Z,99.90
2023-04-27T01:52:55.035Z,99.90
2023-04-27T01:56:58.867Z,99.90
2023-04-27T02:00:58.946Z,99.90
2023-04-27T02:04:59.169Z,99.90
2023-04-27T02:08:59.568Z,99.90
2023-04-27T02:13:02.287Z,99.90
2023-04-27T02:17:02.568Z,99.90
2023-04-27T02:21:02.938Z,99.90
2023-04-27T02:25:03.839Z,99.90
2023-04-27T02:29:06.657Z,99.90
2023-04-27T02:33:07.368Z,99.90
2023-04-27T02:37:07.799Z,99.90
2023-04-27T02:41:08.237Z,99.90
2023-04-27T02:45:12.534Z,99.90
2023-04-27T02:49:13.068Z,99.90
2023-04-27T02:53:14.616Z,99.90
2023-04-27T02:57:15.071Z,99.90
2023-04-27T03:01:18.718Z,99.90
2023-04-27T03:05:19.067Z,99.90
2023-04-27T03:09:19.344Z,99.90
2023-04-27T03:13:19.634Z,99.90
2023-04-27T03:17:22.404Z,99.90
2023-04-27T03:21:22.703Z,99.90
2023-04-27T03:25:23.328Z,99.90
2023-04-27T03:29:23.811Z,99.90
2023-04-27T03:33:27.232Z,99.90
2023-04-27T03:37:27.552Z,99.90
2023-04-27T03:41:30.174Z,99.90
2023-04-27T03:45:31.392Z,99.90
2023-04-27T03:49:34.104Z,99.90
2023-04-27T03:53:34.275Z,99.90
2023-04-27T03:57:34.868Z,99.90
2023-04-27T04:01:35.334Z,99.90
2023-04-27T04:05:38.177Z,99.90
2023-04-27T04:09:38.563Z,99.90
2023-04-27T04:13:39.431Z,99.90
2023-04-27T04:17:39.737Z,99.90
2023-04-27T04:21:43.324Z,99.90
2023-04-27T04:25:43.579Z,99.90
2023-04-27T04:29:43.836Z,99.90
2023-04-27T04:33:44.420Z,99.90
2023-04-27T04:37:47.377Z,99.90
2023-04-27T04:41:49.392Z,99.90
2023-04-27T04:45:51.123Z,99.90
2023-04-27T04:49:51.618Z,99.90
2023-04-27T04:53:54.372Z,99.90
2023-04-27T04:57:56.486Z,99.90
2023-04-27T05:01:58.194Z,99.90
2023-04-27T05:05:58.384Z,99.90
2023-04-27T05:10:01.295Z,99.90
2023-04-27T05:14:02.019Z,99.90
2023-04-27T05:18:02.238Z,99.90
2023-04-27T05:22:02.836Z,99.90
2023-04-27T05:26:14.515Z,99.90
2023-04-27T05:30:16.719Z,99.90
2023-04-27T05:34:17.030Z,99.90
2023-04-27T05:38:17.995Z,99.90
2023-04-27T05:42:20.803Z,99.90
2023-04-27T05:46:21.344Z,99.90
2023-04-27T05:50:21.669Z,99.90
2023-04-27T05:54:22.363Z,99.90
2023-04-27T05:58:25.623Z,99.90
2023-04-27T06:02:26.267Z,99.90
2023-04-27T06:06:26.538Z,99.90
2023-04-27T06:10:27.205Z,99.90
2023-04-27T06:14:30.145Z,99.90
2023-04-27T06:18:30.696Z,99.90
2023-04-27T06:22:31.012Z,99.90
2023-04-27T06:26:31.436Z,99.90
2023-04-27T06:30:34.544Z,99.90
2023-04-27T06:34:35.352Z,99.90
2023-04-27T06:38:35.523Z,99.90
2023-04-27T06:42:35.728Z,99.90
2023-04-27T06:46:41.072Z,99.90
2023-04-27T06:50:41.480Z,99.90
2023-04-27T06:54:42.328Z,99.90
2023-04-27T06:58:42.545Z,99.90
2023-04-27T07:02:45.350Z,99.90
2023-04-27T07:06:45.758Z,99.90
2023-04-27T07:10:46.358Z,99.90
2023-04-27T07:14:46.762Z,99.90
2023-04-27T07:18:49.492Z,99.90
2023-04-27T07:22:49.703Z,99.90
2023-04-27T07:26:49.903Z,99.90
2023-04-27T07:30:50.741Z,99.90
2023-04-27T07:34:54.500Z,99.90
2023-04-27T07:38:54.825Z,99.90
2023-04-27T07:42:55.299Z,99.90
2023-04-27T07:46:58.708Z,99.90
2023-04-27T07:51:01.695Z,99.90
2023-04-27T07:55:02.208Z,99.90
2023-04-27T07:59:02.712Z,99.90
2023-04-27T08:03:03.137Z,99.90
2023-04-27T08:07:06.846Z,99.90
2023-04-27T08:11:07.323Z,99.90
2023-04-27T08:15:09.975Z,99.90
2023-04-27T08:19:10.115Z,99.90
2023-04-27T08:23:13.273Z,99.90
2023-04-27T08:27:15.665Z,99.90
2023-04-27T08:31:16.095Z,99.90
2023-04-27T08:35:16.426Z,99.90
2023-04-27T08:39:19.271Z,99.90
2023-04-27T08:43:19.500Z,99.90
2023-04-27T08:47:28.164Z,99.90
2023-04-27T08:51:35.953Z,99.90
2023-04-27T08:55:38.951Z,98.40
2023-04-27T08:59:39.241Z,97.90
2023-04-27T09:03:41.497Z,95.30
2023-04-27T09:07:41.745Z,93.90
2023-04-27T09:11:45.431Z,92.00
2023-04-27T09:15:48.658Z,90.60
2023-04-27T09:19:49.079Z,91.10
2023-04-27T09:23:49.280Z,89.90
2023-04-27T09:27:52.099Z,84.30
2023-04-27T09:31:52.292Z,77.70
2023-04-27T09:35:53.342Z,77.10
2023-04-27T09:39:53.612Z,75.50
2023-04-27T09:43:59.773Z,68.90
2023-04-27T09:48:01.303Z,65.20
2023-04-27T09:52:01.770Z,64.10
2023-04-27T09:56:19.513Z,60.40
2023-04-27T10:00:44.756Z,58.70
2023-04-27T10:05:13.729Z,60.00
2023-04-27T10:09:15.091Z,64.00
2023-04-27T10:13:26.464Z,65.50
2023-04-27T10:17:35.125Z,63.50
2023-04-27T10:21:35.465Z,63.20
2023-04-27T10:25:43.153Z,63.30
2023-04-27T10:29:46.295Z,64.50
2023-04-27T10:33:49.130Z,66.70
2023-04-27T10:37:49.403Z,69.70
2023-04-27T10:41:54.529Z,68.90
2023-04-27T10:45:54.751Z,67.80
2023-04-27T10:49:58.681Z,63.60
2023-04-27T10:54:00.186Z,60.60
2023-04-27T10:58:01.702Z,58.20
2023-04-27T11:02:01.936Z,58.40
2023-04-27T11:06:09.748Z,55.60
2023-04-27T11:10:13.230Z,57.10
2023-04-27T11:14:16.643Z,57.00
2023-04-27T11:18:17.885Z,55.40
2023-04-27T11:22:20.892Z,54.60
2023-04-27T11:26:26.743Z,55.00
2023-04-27T11:30:27.792Z,58.10
2023-04-27T11:34:34.510Z,58.80
2023-04-27T11:38:40.388Z,59.40
2023-04-27T11:42:43.605Z,60.80
2023-04-27T11:46:49.774Z,61.10
2023-04-27T11:50:51.028Z,62.00
2023-04-27T11:54:56.981Z,60.90
2023-04-27T11:58:57.332Z,59.90
2023-04-27T12:02:57.743Z,59.60
2023-04-27T12:06:58.291Z,62.60
2023-04-27T12:11:01.208Z,63.00
2023-04-27T12:15:01.911Z,60.10
2023-04-27T12:19:02.139Z,61.00
2023-04-27T12:23:02.329Z,61.70
2023-04-27T12:27:05.534Z,62.00
2023-04-27T12:31:08.540Z,58.20
2023-04-27T12:35:10.655Z,57.20
2023-04-27T12:39:23.947Z,54.20
2023-04-27T12:43:26.907Z,55.10
2023-04-27T12:47:49.778Z,54.90
2023-04-27T12:51:52.139Z,54.90
2023-04-27T12:55:53.666Z,56.40
2023-04-27T12:59:57.719Z,57.40
2023-04-27T13:04:03.468Z,57.40
2023-04-27T13:08:04.950Z,57.70
2023-04-27T13:12:05.198Z,59.40
2023-04-27T13:16:08.767Z,59.60
2023-04-27T13:20:11.971Z,60.20
2023-04-27T13:24:12.549Z,60.40
2023-04-27T13:28:12.785Z,62.30
2023-04-27T13:32:15.697Z,61.40
2023-04-27T13:36:16.508Z,61.20
2023-04-27T13:40:16.978Z,62.00
2023-04-27T13:44:17.234Z,61.90
2023-04-27T13:48:20.021Z,62.60
2023-04-27T13:52:20.440Z,63.50
2023-04-27T13:56:21.221Z,62.00
2023-04-27T14:04:37.389Z,61.10
2023-04-27T14:08:38.212Z,59.50
2023-04-27T14:12:39.126Z,59.50
2023-04-27T14:16:39.334Z,61.20
2023-04-27T14:20:42.552Z,58.90
2023-04-27T14:24:42.754Z,59.70
2023-04-27T14:28:43.544Z,58.40
2023-04-27T14:32:43.793Z,56.20
2023-04-27T14:36:46.701Z,55.80
2023-04-27T14:40:47.099Z,54.60
2023-04-27T14:44:48.707Z,53.90
2023-04-27T14:48:51.565Z,53.50
2023-04-27T14:52:58.130Z,53.90
2023-04-27T14:56:58.970Z,55.10
2023-04-27T15:00:59.264Z,54.40
2023-04-27T15:04:59.589Z,54.90
2023-04-27T15:09:02.880Z,57.70
2023-04-27T15:13:05.265Z,59.20
2023-04-27T15:17:06.724Z,56.90
2023-04-27T15:21:07.584Z,55.00
2023-04-27T15:25:12.041Z,57.40
2023-04-27T15:29:12.593Z,56.70
2023-04-27T15:33:13.347Z,57.10
2023-04-27T15:37:13.889Z,58.40
2023-04-27T15:41:16.908Z,56.60
2023-04-27T15:45:17.309Z,57.50
2023-04-27T15:49:17.637Z,59.40
2023-04-27T15:53:17.829Z,59.50
2023-04-27T15:57:21.202Z,61.80
2023-04-27T16:01:21.794Z,60.50
2023-04-27T16:05:22.448Z,61.60
2023-04-27T16:09:22.944Z,63.80
2023-04-27T16:13:27.369Z,63.50
2023-04-27T16:17:28.075Z,64.50
2023-04-27T16:21:29.251Z,63.20
2023-04-27T16:25:29.409Z,61.90
2023-04-27T16:29:32.383Z,60.10
2023-04-27T16:33:32.602Z,57.30
2023-04-27T16:37:35.686Z,56.00
2023-04-27T16:41:36.090Z,54.40
2023-04-27T16:45:41.897Z,51.40
2023-04-27T16:49:42.426Z,52.10
2023-04-27T16:54:32.048Z,54.30
2023-04-27T16:58:33.638Z,54.80
2023-04-27T17:02:36.925Z,55.40
2023-04-27T17:06:37.584Z,56.60
2023-04-27T17:10:38.764Z,59.10
2023-04-27T17:14:39.796Z,61.50
2023-04-27T17:18:43.154Z,63.70
2023-04-27T17:22:43.404Z,65.70
2023-04-27T17:26:43.588Z,67.00
2023-04-27T17:30:43.791Z,69.20
2023-04-27T17:34:46.837Z,69.90
2023-04-27T17:38:47.393Z,70.70
2023-04-27T17:42:48.175Z,71.50
2023-04-27T17:46:54.106Z,71.50
2023-04-27T17:50:57.494Z,73.40
2023-04-27T17:54:58.597Z,75.60
2023-04-27T17:58:58.730Z,77.40
2023-04-27T18:02:59.347Z,79.60
2023-04-27T18:07:02.524Z,79.50
2023-04-27T18:11:03.166Z,81.30
2023-04-27T18:15:05.535Z,81.00
2023-04-27T18:19:07.265Z,79.30
2023-04-27T18:23:10.428Z,80.60
2023-04-27T18:27:10.686Z,82.00
2023-04-27T18:31:17.519Z,85.10
2023-04-27T18:35:18.053Z,87.30
2023-04-27T18:39:21.003Z,89.70
2023-04-27T18:43:21.265Z,91.00
2023-04-27T18:47:21.708Z,92.00
2023-04-27T18:51:23.258Z,93.30
2023-04-27T18:55:26.371Z,94.70
2023-04-27T18:59:26.812Z,96.30
2023-04-27T19:03:28.017Z,97.30
2023-04-27T19:07:28.909Z,98.30
2023-04-27T19:11:32.384Z,99.90
2023-04-27T19:15:32.884Z,99.90
2023-04-27T19:19:33.542Z,99.90
2023-04-27T19:23:33.987Z,99.90
2023-04-27T19:27:37.044Z,99.90
2023-04-27T19:31:39.881Z,99.90
2023-04-27T19:35:40.276Z,99.90
2023-04-27T19:39:41.344Z,99.90
2023-04-27T19:43:44.413Z,99.90
2023-04-27T19:47:44.739Z,99.90
2023-04-27T19:51:45.379Z,99.90
2023-04-27T19:55:45.554Z,99.90
2023-04-27T19:59:48.614Z,99.90
2023-04-27T20:03:49.158Z,99.90
2023-04-27T20:07:50.194Z,99.90
2023-04-27T20:11:50.368Z,99.90
2023-04-27T20:15:53.682Z,99.90
2023-04-27T20:19:59.352Z,99.90
2023-04-27T20:23:59.816Z,99.90
2023-04-27T20:28:00.179Z,99.90
2023-04-27T20:32:03.235Z,99.90
2023-04-27T20:36:16.208Z,99.90
2023-04-27T20:40:19.198Z,99.90
2023-04-27T20:44:20.943Z,99.90
2023-04-27T20:48:24.204Z,99.90
2023-04-27T20:52:25.410Z,99.90
2023-04-27T20:56:26.332Z,99.90
2023-04-27T21:00:27.048Z,99.90
2023-04-27T21:04:29.958Z,99.90
2023-04-27T21:08:33.896Z,99.90
2023-04-27T21:12:34.238Z,99.90
2023-04-27T21:16:34.536Z,99.90
2023-04-27T21:20:37.637Z,99.90
2023-04-27T21:24:37.917Z,99.90
2023-04-27T21:28:38.172Z,99.90
2023-04-27T21:32:38.349Z,99.90
2023-04-27T21:36:41.214Z,99.90
2023-04-27T21:40:41.521Z,99.90
2023-04-27T21:44:41.826Z,99.90
2023-04-27T21:48:42.124Z,99.90
2023-04-27T21:52:44.986Z,99.90
2023-04-27T21:56:45.430Z,99.90
2023-04-27T22:00:45.942Z,99.90
2023-04-27T22:04:46.298Z,99.90
2023-04-27T22:08:49.526Z,99.90
2023-04-27T22:12:49.801Z,99.90
2023-04-27T22:16:50.336Z,99.90
2023-04-27T22:20:50.666Z,99.90
2023-04-27T22:24:54.067Z,99.90
2023-04-27T22:28:54.286Z,99.90
2023-04-27T22:32:54.916Z,99.90
2023-04-27T22:36:55.999Z,99.90
2023-04-27T22:40:59.226Z,99.90
2023-04-27T22:44:59.356Z,99.90
2023-04-27T22:49:01.676Z,99.90
2023-04-27T22:53:02.259Z,99.90
2023-04-27T22:57:05.339Z,99.90
2023-04-27T23:01:06.296Z,99.90
2023-04-27T23:05:07.268Z,99.90
2023-04-27T23:09:07.597Z,99.90
2023-04-27T23:13:10.960Z,99.90
2023-04-27T23:17:12.163Z,99.90
2023-04-27T23:21:13.276Z,99.90
2023-04-27T23:25:14.015Z,99.90
2023-04-27T23:29:16.930Z,99.90
2023-04-27T23:33:17.222Z,99.90
2023-04-27T23:37:17.503Z,99.90
2023-04-27T23:41:17.730Z,99.90
2023-04-27T23:45:20.741Z,99.90
2023-04-27T23:49:20.896Z,99.90
2023-04-27T23:53:21.129Z,99.90
2023-04-27T23:57:21.251Z,99.90
